Time;durP1;ratioP1;P1;durP2;ratioP2;P2;SDS_P1;SDS_P2;PMS_P1;PMS_P2;Temp;Humidity;BMP_temperature;BMP_pressure;BME280_temperature;BME280_humidity;BME280_pressure;Samples;Min_cycle;Max_cycle;Signal;HPM_P1;HPM_P2
2022/10/28 00:01:22;;;;;;;12.30;6.47;;;15.10;4.40;;;;;;5065268;28;20485;-75
2022/10/28 00:03:54;;;;;;;9.73;5.23;;;15.10;6.10;;;;;;5063344;28;20430;-76
2022/10/28 00:06:23;;;;;;;12.70;5.60;;;15.20;6.60;;;;;;5064870;28;20860;-76
2022/10/28 00:08:49;;;;;;;17.60;5.93;;;15.20;5.30;;;;;;5068496;28;20418;-75
2022/10/28 00:11:18;;;;;;;19.47;5.73;;;15.20;6.20;;;;;;5068988;28;20486;-76
2022/10/28 00:13:44;;;;;;;11.90;5.70;;;15.30;5.70;;;;;;5064808;28;20582;-75
2022/10/28 00:16:15;;;;;;;7.27;5.47;;;15.30;5.40;;;;;;5066301;28;20407;-76
2022/10/28 00:18:42;;;;;;;11.00;6.13;;;15.30;6.10;;;;;;5069175;28;20414;-76
2022/10/28 00:21:15;;;;;;;11.07;5.67;;;15.30;5.00;;;;;;5067375;28;20556;-76
2022/10/28 00:23:41;;;;;;;11.13;5.57;;;15.30;4.90;;;;;;5067077;28;20576;-74
2022/10/28 00:26:13;;;;;;;11.20;5.17;;;15.30;5.20;;;;;;5066804;28;20833;-76
2022/10/28 00:28:43;;;;;;;8.70;5.80;;;15.30;6.40;;;;;;5068706;28;20184;-76
2022/10/28 00:31:11;;;;;;;11.60;5.40;;;15.30;7.20;;;;;;5066422;28;20461;-76
2022/10/28 00:33:36;;;;;;;13.07;5.30;;;15.30;6.20;;;;;;5061537;28;20886;-75
2022/10/28 00:36:13;;;;;;;11.40;6.30;;;15.30;7.70;;;;;;5064126;28;20514;-76
2022/10/28 00:38:40;;;;;;;9.47;5.07;;;15.30;6.10;;;;;;5057430;28;20183;-76
2022/10/28 00:41:06;;;;;;;16.93;5.33;;;15.30;7.30;;;;;;5063956;28;20435;-75
2022/10/28 00:43:45;;;;;;;18.00;5.80;;;15.30;6.40;;;;;;5060435;28;20435;-76
2022/10/28 00:46:19;;;;;;;9.80;5.73;;;15.30;7.10;;;;;;5058031;28;20435;-76
2022/10/28 00:48:48;;;;;;;7.63;4.90;;;15.30;7.30;;;;;;5067290;28;20415;-75
2022/10/28 00:51:14;;;;;;;12.40;5.57;;;15.40;7.20;;;;;;5062155;28;20474;-76
2022/10/28 00:53:43;;;;;;;12.47;5.83;;;15.40;9.00;;;;;;5068493;28;20449;-76
2022/10/28 00:56:11;;;;;;;8.50;5.27;;;15.40;5.00;;;;;;5063917;28;20427;-76
2022/10/28 00:58:36;;;;;;;10.87;5.57;;;15.40;6.10;;;;;;5068664;28;20407;-76
2022/10/28 01:01:02;;;;;;;15.30;5.70;;;15.40;7.40;;;;;;5063917;28;20438;-75
2022/10/28 01:03:28;;;;;;;9.67;5.20;;;15.40;8.60;;;;;;5065574;28;20288;-76
2022/10/28 01:05:54;;;;;;;11.13;5.50;;;15.40;8.20;;;;;;5068883;28;20168;-76
2022/10/28 01:08:19;;;;;;;18.43;5.43;;;15.40;7.40;;;;;;5070169;28;20175;-75
2022/10/28 01:10:58;;;;;;;10.97;4.73;;;15.40;8.60;;;;;;5080897;28;20406;-74
2022/10/28 01:13:27;;;;;;;12.43;5.70;;;15.40;10.10;;;;;;5078984;28;20673;-77
2022/10/28 01:16:11;;;;;;;12.60;5.50;;;15.40;10.20;;;;;;5067255;28;20895;-76
2022/10/28 01:19:10;;;;;;;13.37;5.13;;;15.50;12.60;;;;;;5061186;28;20415;-76
2022/10/28 01:21:55;;;;;;;10.20;5.23;;;15.50;11.60;;;;;;5061655;28;20530;-75
2022/10/28 01:25:04;;;;;;;13.70;6.17;;;15.60;12.20;;;;;;5065764;28;20775;-75
2022/10/28 01:27:51;;;;;;;9.07;5.17;;;15.70;10.30;;;;;;5060605;28;20418;-75
2022/10/28 01:30:27;;;;;;;9.63;4.80;;;15.80;7.80;;;;;;5048493;28;20443;-76
2022/10/28 01:33:06;;;;;;;9.60;5.50;;;15.80;6.80;;;;;;5061179;28;20475;-76
2022/10/28 01:35:38;;;;;;;9.93;4.80;;;15.80;4.90;;;;;;5065067;28;20431;-76
2022/10/28 01:38:34;;;;;;;13.73;5.27;;;15.90;4.70;;;;;;5067717;28;20816;-75
2022/10/28 01:41:17;;;;;;;9.70;5.43;;;15.90;3.50;;;;;;5066927;28;20517;-76
2022/10/28 01:44:11;;;;;;;13.20;6.30;;;15.90;4.50;;;;;;5068031;28;20494;-75
2022/10/28 01:46:42;;;;;;;13.30;6.10;;;15.90;5.10;;;;;;5058802;28;20439;-75
2022/10/28 01:49:20;;;;;;;10.27;5.10;;;15.90;5.20;;;;;;5066002;28;20411;-75
2022/10/28 01:51:49;;;;;;;9.73;5.10;;;16.00;4.20;;;;;;5054827;28;20470;-77
2022/10/28 01:54:19;;;;;;;9.43;4.70;;;16.00;3.80;;;;;;5069778;28;20442;-76
2022/10/28 01:56:46;;;;;;;8.33;4.80;;;16.00;3.00;;;;;;5071071;28;20521;-77
2022/10/28 01:59:18;;;;;;;20.03;5.43;;;16.00;4.90;;;;;;5069771;28;20430;-75
2022/10/28 02:01:44;;;;;;;11.43;6.03;;;16.00;4.40;;;;;;5072173;28;20446;-75
2022/10/28 02:04:10;;;;;;;8.90;4.40;;;16.10;5.60;;;;;;5068156;28;20434;-75
2022/10/28 02:06:37;;;;;;;10.13;4.57;;;16.10;4.50;;;;;;5071540;28;20260;-75
2022/10/28 02:09:13;;;;;;;10.90;5.53;;;16.10;2.30;;;;;;5063750;28;20188;-75
2022/10/28 02:12:20;;;;;;;7.33;5.17;;;16.10;5.50;;;;;;5079156;28;20469;-75
2022/10/28 02:15:28;;;;;;;7.73;4.40;;;16.00;7.60;;;;;;5069218;28;20456;-75
2022/10/28 02:18:05;;;;;;;10.70;5.47;;;16.00;5.20;;;;;;5068044;28;20445;-77
2022/10/28 02:20:53;;;;;;;8.90;4.83;;;15.90;5.00;;;;;;5071400;28;20925;-77
2022/10/28 02:24:03;;;;;;;8.33;4.63;;;15.90;5.60;;;;;;5067502;28;20949;-74
2022/10/28 02:26:40;;;;;;;14.53;4.73;;;15.80;5.50;;;;;;5048912;28;20416;-76
2022/10/28 02:29:15;;;;;;;10.53;4.47;;;15.80;4.80;;;;;;5061916;28;20488;-77
2022/10/28 02:31:53;;;;;;;14.23;4.13;;;15.90;1.00;;;;;;5066979;28;20926;-76
2022/10/28 02:34:24;;;;;;;13.03;4.53;;;16.00;1.00;;;;;;5068156;28;20446;-76
2022/10/28 02:36:53;;;;;;;12.00;5.10;;;16.20;1.00;;;;;;5071485;28;20498;-75
2022/10/28 02:39:34;;;;;;;14.40;4.37;;;16.30;1.00;;;;;;5067735;28;20528;-75
2022/10/28 02:42:27;;;;;;;12.20;4.50;;;16.40;1.00;;;;;;5069775;28;21027;-76
2022/10/28 02:44:59;;;;;;;12.77;4.17;;;16.90;1.00;;;;;;5067503;28;20439;-76
2022/10/28 02:47:31;;;;;;;8.63;4.63;;;16.70;1.00;;;;;;5065394;28;20439;-76
2022/10/28 02:50:02;;;;;;;6.13;4.30;;;17.00;1.00;;;;;;5068253;28;20442;-76
2022/10/28 02:52:30;;;;;;;9.40;4.40;;;17.10;1.00;;;;;;5070455;28;20464;-77
2022/10/28 02:54:58;;;;;;;12.67;4.43;;;17.20;1.00;;;;;;5067628;28;20438;-76
2022/10/28 02:57:36;;;;;;;7.97;4.57;;;17.80;1.00;;;;;;5068747;28;20783;-77
2022/10/28 03:00:09;;;;;;;10.40;4.80;;;17.30;1.00;;;;;;5069112;28;20426;-76
2022/10/28 03:02:34;;;;;;;11.23;5.00;;;17.30;1.00;;;;;;5068433;28;20463;-76
2022/10/28 03:05:00;;;;;;;13.67;5.17;;;17.30;1.00;;;;;;5070311;28;20433;-76
2022/10/28 03:07:26;;;;;;;10.27;5.20;;;17.20;1.00;;;;;;5069538;28;20176;-76
2022/10/28 03:09:51;;;;;;;8.23;4.27;;;17.10;1.00;;;;;;5073041;28;20178;-76
2022/10/28 03:12:17;;;;;;;11.37;5.20;;;17.10;1.00;;;;;;5077488;28;20231;-76
2022/10/28 03:14:42;;;;;;;9.20;5.20;;;17.20;1.00;;;;;;5065442;28;20263;-76
2022/10/28 03:17:08;;;;;;;8.60;4.40;;;17.10;1.00;;;;;;5066290;28;20172;-76
2022/10/28 03:19:33;;;;;;;7.13;4.43;;;17.40;1.00;;;;;;5067487;28;20230;-75
2022/10/28 03:21:59;;;;;;;7.27;5.10;;;17.10;1.00;;;;;;5069543;28;20215;-76
2022/10/28 03:24:25;;;;;;;12.30;5.70;;;17.20;1.00;;;;;;5061742;28;20679;-76
2022/10/28 03:26:50;;;;;;;14.60;4.53;;;17.20;1.00;;;;;;5069135;28;20527;-76
2022/10/28 03:29:16;;;;;;;9.10;5.03;;;17.20;1.00;;;;;;5067688;28;20183;-76
2022/10/28 03:31:41;;;;;;;7.70;4.30;;;17.20;1.00;;;;;;5068822;28;20208;-75
2022/10/28 03:34:07;;;;;;;11.23;4.40;;;17.20;1.00;;;;;;5065125;28;20203;-76
2022/10/28 03:36:32;;;;;;;13.83;5.03;;;18.50;1.00;;;;;;5069987;28;20706;-76
2022/10/28 03:38:58;;;;;;;11.00;4.70;;;17.40;1.00;;;;;;5067271;28;20172;-76
2022/10/28 03:41:23;;;;;;;12.13;5.20;;;17.50;1.00;;;;;;5069675;28;20263;-75
2022/10/28 03:43:49;;;;;;;12.03;4.90;;;17.50;1.00;;;;;;5067165;28;20229;-76
2022/10/28 03:46:14;;;;;;;7.23;4.27;;;17.50;1.00;;;;;;5060038;28;20219;-77
2022/10/28 03:48:40;;;;;;;8.23;4.97;;;17.50;1.00;;;;;;5065169;28;20621;-75
2022/10/28 03:51:06;;;;;;;10.03;4.90;;;17.60;1.00;;;;;;5067511;28;20196;-76
2022/10/28 03:53:31;;;;;;;10.97;4.43;;;17.60;1.00;;;;;;5066876;28;20201;-75
2022/10/28 03:55:59;;;;;;;10.97;5.03;;;17.60;1.00;;;;;;5058282;28;20667;-76
2022/10/28 03:58:25;;;;;;;9.23;5.00;;;17.60;1.00;;;;;;5064495;28;20241;-77
2022/10/28 04:00:51;;;;;;;11.90;4.43;;;17.60;1.00;;;;;;5069353;28;21008;-75
2022/10/28 04:03:18;;;;;;;15.10;4.93;;;18.10;1.00;;;;;;5065741;28;20689;-77
2022/10/28 04:05:44;;;;;;;13.73;4.50;;;17.70;1.00;;;;;;5069476;28;20415;-76
2022/10/28 04:08:10;;;;;;;13.60;5.03;;;17.70;1.00;;;;;;5065725;28;20446;-76
2022/10/28 04:10:35;;;;;;;10.23;5.17;;;17.60;1.00;;;;;;5069077;28;20199;-75
2022/10/28 04:13:04;;;;;;;8.30;4.70;;;17.60;1.00;;;;;;5059927;28;20579;-75
2022/10/28 04:15:30;;;;;;;7.03;4.47;;;17.60;1.00;;;;;;5067878;28;20171;-76
2022/10/28 04:17:56;;;;;;;10.63;5.80;;;17.60;1.00;;;;;;5067201;28;20524;-75
2022/10/28 04:20:22;;;;;;;14.80;7.70;;;17.60;1.00;;;;;;5068803;28;20203;-75
2022/10/28 04:22:47;;;;;;;9.97;5.00;;;17.60;1.00;;;;;;5066320;28;20671;-76
2022/10/28 04:25:13;;;;;;;10.77;5.20;;;18.00;1.00;;;;;;5069474;28;20415;-76
2022/10/28 04:27:39;;;;;;;13.13;4.50;;;17.60;1.00;;;;;;5061425;28;20199;-76
2022/10/28 04:30:05;;;;;;;14.30;4.87;;;17.50;1.00;;;;;;5068242;28;20708;-74
2022/10/28 04:32:30;;;;;;;9.73;4.30;;;17.50;1.00;;;;;;5057385;28;20208;-76
2022/10/28 04:34:56;;;;;;;13.43;4.50;;;17.50;1.00;;;;;;5061552;28;20874;-76
2022/10/28 04:37:22;;;;;;;10.37;4.57;;;17.40;1.00;;;;;;5060682;28;20177;-76
2022/10/28 04:39:47;;;;;;;16.67;5.70;;;17.40;1.00;;;;;;5071186;28;20184;-76
2022/10/28 04:42:13;;;;;;;16.43;7.20;;;17.40;1.00;;;;;;5073284;28;20204;-75
2022/10/28 04:44:38;;;;;;;13.27;6.93;;;17.30;1.00;;;;;;5064264;28;20271;-76
2022/10/28 04:47:04;;;;;;;11.57;7.20;;;19.40;1.00;;;;;;5065391;28;20288;-75
2022/10/28 04:49:29;;;;;;;14.27;7.80;;;17.20;1.00;;;;;;5067856;28;20456;-77
2022/10/28 04:51:55;;;;;;;14.33;6.90;;;17.10;1.00;;;;;;5059077;28;20204;-76
2022/10/28 04:54:21;;;;;;;15.60;5.60;;;17.10;1.00;;;;;;5068561;28;20682;-75
2022/10/28 04:56:46;;;;;;;8.70;4.13;;;17.00;1.00;;;;;;5060026;28;20176;-76
2022/10/28 04:59:12;;;;;;;12.03;5.30;;;17.00;1.00;;;;;;5068691;28;20169;-76
2022/10/28 05:01:37;;;;;;;11.37;4.70;;;16.90;1.00;;;;;;5059395;28;20260;-76
2022/10/28 05:04:03;;;;;;;9.00;4.40;;;16.80;1.00;;;;;;5063299;28;20658;-76
2022/10/28 05:06:29;;;;;;;8.40;4.90;;;16.80;1.00;;;;;;5060827;28;20287;-76
2022/10/28 05:08:54;;;;;;;10.27;5.30;;;16.70;1.00;;;;;;5069170;28;20185;-77
2022/10/28 05:11:20;;;;;;;11.43;4.53;;;16.70;1.00;;;;;;5062435;28;20257;-76
2022/10/28 05:13:45;;;;;;;8.90;4.53;;;16.60;1.00;;;;;;5067465;28;20173;-76
2022/10/28 05:16:11;;;;;;;17.57;4.70;;;16.60;1.00;;;;;;5065682;28;20180;-76
2022/10/28 05:18:36;;;;;;;17.40;4.50;;;16.50;1.00;;;;;;5067594;28;20172;-76
2022/10/28 05:21:02;;;;;;;9.80;4.60;;;16.40;1.00;;;;;;5065507;28;20172;-76
2022/10/28 05:23:27;;;;;;;10.60;4.50;;;16.40;1.00;;;;;;5067850;28;20207;-77
2022/10/28 05:25:53;;;;;;;17.30;4.77;;;16.30;1.00;;;;;;5066393;28;20693;-76
2022/10/28 05:28:18;;;;;;;9.90;4.57;;;16.20;1.00;;;;;;5056790;28;20181;-76
2022/10/28 05:30:44;;;;;;;9.80;4.63;;;16.10;1.00;;;;;;5064778;28;20214;-77
2022/10/28 05:33:10;;;;;;;9.87;4.60;;;16.10;1.00;;;;;;5067347;28;20379;-76
2022/10/28 05:35:36;;;;;;;9.80;4.00;;;16.10;1.00;;;;;;5069940;28;20218;-74
2022/10/28 05:38:02;;;;;;;14.23;4.50;;;16.10;1.00;;;;;;5076650;28;20304;-76
2022/10/28 05:40:28;;;;;;;13.23;4.70;;;16.30;1.00;;;;;;5074831;28;20427;-76
2022/10/28 05:42:53;;;;;;;9.10;4.87;;;16.10;1.00;;;;;;5068183;28;20549;-76
2022/10/28 05:45:19;;;;;;;12.70;4.57;;;16.20;1.00;;;;;;5070357;28;20635;-76
2022/10/28 05:47:46;;;;;;;7.47;4.47;;;16.20;1.00;;;;;;5072996;28;20176;-76
2022/10/28 05:50:13;;;;;;;15.10;4.50;;;16.40;1.00;;;;;;5073863;28;20192;-76
2022/10/28 05:52:39;;;;;;;10.20;4.63;;;16.30;1.00;;;;;;5067662;28;20516;-76
2022/10/28 05:55:05;;;;;;;11.90;3.97;;;16.30;1.00;;;;;;5073199;28;20398;-75
2022/10/28 05:57:34;;;;;;;8.33;4.20;;;16.40;1.00;;;;;;5071939;28;20175;-76
2022/10/28 05:59:59;;;;;;;15.90;5.63;;;16.40;1.00;;;;;;5070421;28;20517;-77
2022/10/28 06:02:25;;;;;;;12.70;4.50;;;16.40;1.00;;;;;;5053380;28;20737;-76
2022/10/28 06:04:50;;;;;;;9.40;4.57;;;16.40;1.00;;;;;;5067502;28;20195;-77
2022/10/28 06:07:16;;;;;;;12.10;5.00;;;16.40;1.00;;;;;;5070881;28;20209;-75
2022/10/28 06:09:41;;;;;;;13.43;4.50;;;16.50;1.00;;;;;;5082165;28;20250;-75
2022/10/28 06:12:07;;;;;;;10.20;4.60;;;16.50;1.00;;;;;;5060061;28;20295;-76
2022/10/28 06:14:33;;;;;;;6.30;3.97;;;16.50;1.00;;;;;;5069499;28;20645;-76
2022/10/28 06:16:58;;;;;;;10.30;5.07;;;16.50;1.00;;;;;;5062340;28;20656;-77
2022/10/28 06:19:24;;;;;;;18.63;4.93;;;16.50;1.00;;;;;;5060881;28;20556;-76
2022/10/28 06:21:49;;;;;;;9.60;4.70;;;16.60;1.00;;;;;;5071570;28;20207;-76
2022/10/28 06:24:15;;;;;;;8.40;4.27;;;16.60;1.00;;;;;;5067936;28;20181;-77
2022/10/28 06:26:42;;;;;;;9.87;4.63;;;16.60;1.00;;;;;;5068614;28;20184;-75
2022/10/28 06:29:11;;;;;;;10.37;4.20;;;16.70;1.00;;;;;;5066886;28;20191;-76
2022/10/28 06:31:41;;;;;;;13.67;4.70;;;16.80;1.00;;;;;;5068940;28;20506;-76
2022/10/28 06:34:08;;;;;;;10.85;4.30;;;16.80;1.00;;;;;;5064691;28;20518;-82
2022/10/28 06:36:34;;;;;;;9.70;4.30;;;17.00;1.00;;;;;;5062207;28;20176;-81
2022/10/28 06:38:59;;;;;;;16.60;4.67;;;17.10;1.00;;;;;;5065459;28;20430;-81
2022/10/28 06:41:25;;;;;;;10.60;4.97;;;17.30;1.00;;;;;;5067251;28;20518;-81
2022/10/28 06:43:50;;;;;;;12.50;4.70;;;17.30;1.00;;;;;;5064515;28;20177;-82
2022/10/28 06:46:16;;;;;;;12.97;5.07;;;17.50;1.00;;;;;;5062111;28;20181;-79
2022/10/28 06:48:41;;;;;;;7.50;4.30;;;17.60;1.00;;;;;;5064943;28;20193;-77
2022/10/28 06:51:07;;;;;;;9.17;4.90;;;17.60;1.00;;;;;;5065035;28;20203;-76
2022/10/28 06:53:32;;;;;;;9.87;5.03;;;17.70;1.00;;;;;;5064620;28;20491;-75
2022/10/28 06:55:58;;;;;;;9.63;4.73;;;17.70;1.00;;;;;;5066953;28;20196;-76
2022/10/28 06:58:24;;;;;;;16.53;4.80;;;17.80;1.00;;;;;;5063911;28;20183;-79
2022/10/28 07:00:50;;;;;;;11.50;4.50;;;17.90;1.00;;;;;;5079326;28;20222;-77
2022/10/28 07:03:17;;;;;;;11.80;4.43;;;18.00;1.00;;;;;;5069462;28;20439;-76
2022/10/28 07:05:44;;;;;;;10.57;4.70;;;18.00;1.00;;;;;;5071372;28;20431;-76
2022/10/28 07:08:10;;;;;;;9.30;4.60;;;18.00;1.00;;;;;;5069429;28;20498;-76
2022/10/28 07:10:36;;;;;;;10.70;4.80;;;18.00;1.00;;;;;;5079999;28;20414;-76
2022/10/28 07:13:02;;;;;;;11.23;4.40;;;18.00;1.00;;;;;;5083113;28;21003;-75
2022/10/28 07:15:28;;;;;;;10.77;4.10;;;18.00;1.00;;;;;;5071119;28;20172;-75
2022/10/28 07:17:55;;;;;;;13.90;5.23;;;18.10;1.00;;;;;;5081328;28;20836;-75
2022/10/28 07:20:22;;;;;;;10.30;5.00;;;18.10;1.00;;;;;;5063295;28;20419;-76
2022/10/28 07:22:47;;;;;;;14.13;4.50;;;18.10;1.00;;;;;;5052077;28;20529;-76
2022/10/28 07:25:13;;;;;;;11.00;4.77;;;18.20;1.00;;;;;;5069420;28;20973;-75
2022/10/28 07:27:38;;;;;;;9.23;4.70;;;18.20;1.00;;;;;;5068023;28;20256;-76
2022/10/28 07:30:04;;;;;;;14.00;4.87;;;18.20;1.00;;;;;;5070374;28;20238;-76
2022/10/28 07:32:33;;;;;;;14.97;3.97;;;18.30;1.00;;;;;;5050983;28;20564;-76
2022/10/28 07:34:58;;;;;;;22.53;4.60;;;18.20;1.00;;;;;;5065811;28;20423;-76
2022/10/28 07:37:24;;;;;;;15.53;5.37;;;18.30;1.00;;;;;;5062903;28;20539;-77
2022/10/28 07:39:49;;;;;;;10.60;4.73;;;18.20;1.00;;;;;;5066487;28;20181;-76
2022/10/28 07:42:15;;;;;;;10.60;5.07;;;18.20;1.00;;;;;;5057367;28;20211;-75
2022/10/28 07:44:40;;;;;;;12.03;4.37;;;18.20;1.00;;;;;;5057399;28;20187;-76
2022/10/28 07:47:06;;;;;;;11.83;4.83;;;18.20;1.00;;;;;;5071147;28;20177;-76
2022/10/28 07:49:31;;;;;;;8.60;4.70;;;18.20;1.00;;;;;;5070587;28;20210;-75
2022/10/28 07:51:57;;;;;;;9.30;4.73;;;18.20;1.00;;;;;;5069020;28;20302;-75
2022/10/28 07:54:23;;;;;;;9.17;4.80;;;18.20;1.00;;;;;;5070914;28;20272;-76
2022/10/28 07:56:48;;;;;;;11.13;4.40;;;18.20;1.00;;;;;;5067566;28;20681;-77
2022/10/28 07:59:14;;;;;;;6.90;4.80;;;18.10;1.00;;;;;;5053477;28;20188;-76
2022/10/28 08:01:39;;;;;;;10.60;4.90;;;18.20;1.00;;;;;;5065264;28;20209;-75
2022/10/28 08:04:05;;;;;;;18.40;4.50;;;18.20;1.00;;;;;;5054664;28;20532;-77
2022/10/28 08:06:32;;;;;;;12.07;5.30;;;18.60;1.00;;;;;;5052219;28;20224;-75
2022/10/28 08:08:57;;;;;;;13.37;4.70;;;18.30;1.00;;;;;;5059937;28;20214;-76
2022/10/28 08:11:23;;;;;;;16.10;5.00;;;18.40;1.00;;;;;;5070391;28;20510;-77
2022/10/28 08:13:50;;;;;;;13.13;4.57;;;18.40;1.00;;;;;;5060778;28;20168;-76
2022/10/28 08:16:16;;;;;;;8.10;4.77;;;18.40;1.00;;;;;;5060244;28;20718;-77
2022/10/28 08:18:42;;;;;;;9.23;4.30;;;18.50;1.00;;;;;;5057144;28;20443;-78
2022/10/28 08:21:09;;;;;;;18.80;4.70;;;19.00;1.00;;;;;;5065905;28;20411;-76
2022/10/28 08:23:35;;;;;;;14.87;4.57;;;18.60;1.00;;;;;;5069306;28;20193;-76
2022/10/28 08:26:01;;;;;;;13.20;4.30;;;18.60;1.00;;;;;;5056308;28;20416;-75
2022/10/28 08:28:26;;;;;;;19.10;4.80;;;18.60;1.00;;;;;;5056515;28;20169;-76
2022/10/28 08:30:52;;;;;;;19.50;5.67;;;18.60;1.00;;;;;;5069560;28;20180;-76
2022/10/28 08:33:18;;;;;;;12.63;4.70;;;18.60;1.00;;;;;;5067523;28;20713;-75
2022/10/28 08:35:49;;;;;;;13.13;4.73;;;18.70;1.00;;;;;;5069762;28;20245;-75
2022/10/28 08:38:14;;;;;;;6.60;4.17;;;18.90;1.00;;;;;;5067940;28;20183;-77
2022/10/28 08:40:56;;;;;;;9.70;4.57;;;19.00;1.00;;;;;;5063229;28;20427;-75
2022/10/28 08:43:35;;;;;;;10.17;4.73;;;19.00;1.00;;;;;;5065452;28;20682;-76
2022/10/28 08:46:21;;;;;;;9.97;4.53;;;19.10;1.00;;;;;;5054950;28;20422;-76
2022/10/28 08:48:46;;;;;;;13.00;5.70;;;19.20;1.00;;;;;;5066269;28;20442;-75
2022/10/28 08:51:18;;;;;;;9.43;4.87;;;19.30;1.00;;;;;;5056702;28;20446;-76
2022/10/28 08:53:51;;;;;;;10.27;4.73;;;19.40;1.00;;;;;;5069587;28;20173;-76
2022/10/28 08:56:50;;;;;;;19.60;5.10;;;19.50;1.00;;;;;;5061607;28;20430;-75
2022/10/28 08:59:22;;;;;;;9.07;4.53;;;19.60;1.00;;;;;;5055086;28;20468;-76
2022/10/28 09:01:58;;;;;;;12.17;4.30;;;19.70;1.00;;;;;;5064377;28;20987;-76
2022/10/28 09:04:42;;;;;;;9.30;4.33;;;19.70;1.00;;;;;;5063490;28;20446;-76
2022/10/28 09:07:15;;;;;;;10.37;4.53;;;19.90;1.00;;;;;;5064367;28;20431;-77
2022/10/28 09:09:41;;;;;;;10.10;5.50;;;20.10;1.00;;;;;;5067489;28;20435;-76
2022/10/28 09:12:39;;;;;;;9.87;4.13;;;20.50;1.00;;;;;;5067307;28;20470;-76
2022/10/28 09:15:37;;;;;;;15.50;4.23;;;20.50;1.00;;;;;;5060378;28;20225;-75
2022/10/28 09:18:49;;;;;;;11.30;5.03;;;20.40;1.00;;;;;;5061653;28;20506;-77
2022/10/28 09:21:38;;;;;;;15.90;5.17;;;20.30;1.00;;;;;;5067889;28;20429;-76
2022/10/28 09:24:14;;;;;;;17.23;5.43;;;20.40;1.00;;;;;;5060109;28;20434;-77
2022/10/28 09:26:50;;;;;;;17.43;4.90;;;20.50;1.00;;;;;;5060827;28;20453;-77
2022/10/28 09:29:25;;;;;;;11.73;4.57;;;20.30;1.00;;;;;;5063197;28;20438;-77
2022/10/28 09:32:17;;;;;;;11.07;4.60;;;20.20;1.00;;;;;;5068715;28;20983;-76
2022/10/28 09:34:48;;;;;;;12.23;4.80;;;20.10;1.00;;;;;;5040239;28;20806;-76
2022/10/28 09:37:36;;;;;;;12.60;4.47;;;20.20;1.00;;;;;;5059709;28;21006;-78
2022/10/28 09:40:10;;;;;;;15.50;4.40;;;20.20;1.00;;;;;;5060194;28;20953;-76
2022/10/28 09:42:45;;;;;;;11.40;4.50;;;20.30;1.00;;;;;;5068921;28;20518;-77
2022/10/28 09:45:16;;;;;;;13.97;4.30;;;20.40;1.00;;;;;;5054771;28;20504;-77
2022/10/28 09:47:54;;;;;;;10.90;4.93;;;20.50;1.00;;;;;;5061437;28;21010;-75
2022/10/28 09:50:23;;;;;;;18.40;4.70;;;20.60;1.00;;;;;;5058571;28;20447;-75
2022/10/28 09:53:04;;;;;;;9.67;4.83;;;20.90;1.00;;;;;;5067669;28;21086;-77
2022/10/28 09:55:31;;;;;;;11.10;4.57;;;21.20;1.00;;;;;;5051402;28;20438;-76
2022/10/28 09:57:57;;;;;;;10.30;4.60;;;21.80;1.00;;;;;;5063936;28;20516;-77
2022/10/28 10:00:23;;;;;;;11.30;4.70;;;22.30;1.00;;;;;;5053064;28;20541;-77
2022/10/28 10:02:53;;;;;;;11.70;4.60;;;22.50;1.00;;;;;;5060324;28;20683;-77
2022/10/28 10:05:19;;;;;;;13.70;4.77;;;22.30;1.00;;;;;;5061196;28;20170;-76
2022/10/28 10:07:49;;;;;;;14.23;5.03;;;22.00;1.00;;;;;;5060633;28;20440;-75
2022/10/28 10:10:22;;;;;;;16.10;5.00;;;21.80;1.00;;;;;;5062352;28;20687;-77
2022/10/28 10:12:55;;;;;;;8.80;4.60;;;21.80;1.00;;;;;;5065342;28;20615;-76
2022/10/28 10:15:45;;;;;;;12.30;4.57;;;21.90;1.00;;;;;;5071745;28;20939;-78
2022/10/28 10:18:31;;;;;;;11.40;4.50;;;21.90;1.00;;;;;;5060167;28;21003;-75
2022/10/28 10:20:57;;;;;;;11.07;5.10;;;21.90;1.00;;;;;;5068211;28;20435;-76
2022/10/28 10:23:31;;;;;;;17.40;4.97;;;21.80;1.00;;;;;;5067373;28;20526;-76
2022/10/28 10:26:10;;;;;;;18.10;5.10;;;22.20;1.00;;;;;;5068368;28;21120;-76
2022/10/28 10:28:41;;;;;;;12.07;5.40;;;22.40;1.00;;;;;;5067859;28;20480;-77
2022/10/28 10:31:15;;;;;;;11.60;4.63;;;23.70;1.00;;;;;;5067647;28;20442;-77
2022/10/28 10:33:40;;;;;;;11.80;5.03;;;26.70;1.00;;;;;;5067475;28;20437;-77
2022/10/28 10:36:09;;;;;;;14.70;5.50;;;27.90;1.00;;;;;;5063672;28;20427;-75
2022/10/28 10:38:36;;;;;;;11.93;4.57;;;27.40;1.00;;;;;;5072299;28;20183;-79
2022/10/28 10:41:02;;;;;;;14.53;5.47;;;26.80;1.00;;;;;;5066018;28;20475;-77
2022/10/28 10:43:35;;;;;;;11.90;5.13;;;26.30;1.00;;;;;;5072028;28;20784;-79
2022/10/28 10:46:20;;;;;;;8.70;4.83;;;26.10;1.00;;;;;;5071181;28;20776;-77
2022/10/28 10:49:05;;;;;;;11.53;4.13;;;26.00;1.00;;;;;;5070331;28;20775;-77
2022/10/28 10:51:31;;;;;;;11.90;4.23;;;26.90;1.00;;;;;;5066566;28;20515;-79
2022/10/28 10:54:00;;;;;;;15.23;5.10;;;28.90;1.00;;;;;;5067401;28;20438;-77
2022/10/28 10:56:29;;;;;;;11.93;5.47;;;29.40;1.00;;;;;;5059643;28;20184;-76
2022/10/28 10:58:58;;;;;;;13.90;4.50;;;28.60;1.00;;;;;;5070095;28;20249;-77
2022/10/28 11:01:27;;;;;;;17.77;5.30;;;27.20;1.00;;;;;;5062323;28;20189;-78
2022/10/28 11:03:56;;;;;;;7.13;3.90;;;27.10;1.00;;;;;;5061800;28;20480;-78
2022/10/28 11:06:35;;;;;;;13.33;4.30;;;27.60;1.00;;;;;;5070177;28;20425;-78
2022/10/28 11:09:06;;;;;;;11.80;4.20;;;28.10;1.00;;;;;;5068225;28;20437;-78
2022/10/28 11:11:37;;;;;;;11.30;4.90;;;29.90;1.00;;;;;;5087596;28;20218;-79
2022/10/28 11:14:21;;;;;;;18.35;4.45;;;31.50;1.00;;;;;;5064838;28;20656;-79
2022/10/28 11:16:55;;;;;;;11.07;3.72;;;32.60;1.00;;;;;;5065146;28;20670;-78
2022/10/28 11:19:23;;;;;;;16.77;3.85;;;33.40;1.00;;;;;;5067751;28;20179;-80
2022/10/28 11:22:10;;;;;;;13.60;3.83;;;33.60;1.00;;;;;;5070792;28;20195;-79
2022/10/28 11:24:49;;;;;;;14.68;4.38;;;34.60;1.00;;;;;;5060659;28;20276;-78
2022/10/28 11:27:54;;;;;;;9.05;3.33;;;36.00;1.00;;;;;;5072038;28;20183;-78
2022/10/28 11:30:25;;;;;;;9.00;3.75;;;36.30;1.00;;;;;;5063134;28;20191;-79
2022/10/28 11:33:12;;;;;;;7.85;3.30;;;35.80;1.00;;;;;;5052027;28;20204;-79
2022/10/28 11:36:26;;;;;;;10.02;3.63;;;35.00;1.00;;;;;;5069216;28;20180;-78
2022/10/28 11:39:26;;;;;;;12.00;3.90;;;34.80;1.00;;;;;;5048289;28;20181;-79
2022/10/28 11:42:04;;;;;;;12.85;3.80;;;33.90;1.00;;;;;;5063950;28;20199;-78
2022/10/28 11:44:37;;;;;;;8.30;3.50;;;33.20;1.00;;;;;;5069472;28;20225;-78
2022/10/28 11:47:20;;;;;;;9.93;4.15;;;33.40;1.00;;;;;;5062604;28;20215;-78
2022/10/28 11:50:08;;;;;;;12.18;3.70;;;33.50;1.00;;;;;;5070828;28;20192;-79
2022/10/28 11:52:59;;;;;;;12.10;4.07;;;33.30;1.00;;;;;;5072897;28;20215;-78
2022/10/28 11:55:34;;;;;;;11.07;3.88;;;33.70;1.00;;;;;;5065835;28;20275;-79
2022/10/28 11:58:31;;;;;;;15.75;4.00;;;33.90;1.00;;;;;;5060935;28;20172;-80
2022/10/28 12:01:11;;;;;;;10.25;3.75;;;33.10;1.00;;;;;;5058689;28;20682;-78
2022/10/28 12:03:49;;;;;;;10.80;4.32;;;33.80;1.00;;;;;;5068599;28;20178;-80
2022/10/28 12:06:36;;;;;;;13.07;3.80;;;34.90;1.00;;;;;;5063646;28;20642;-78
2022/10/28 12:09:45;;;;;;;8.38;3.85;;;35.10;1.00;;;;;;5057531;28;20203;-80
2022/10/28 12:12:34;;;;;;;10.60;4.10;;;34.40;1.00;;;;;;5059363;28;20304;-79
2022/10/28 12:15:24;;;;;;;13.45;4.05;;;34.60;1.00;;;;;;5069034;28;20247;-77
2022/10/28 12:17:59;;;;;;;14.10;3.85;;;34.90;1.00;;;;;;5058898;28;20192;-78
2022/10/28 12:20:29;;;;;;;14.93;4.30;;;35.10;1.00;;;;;;5067612;28;20172;-79
2022/10/28 12:22:58;;;;;;;12.15;3.90;;;34.80;1.00;;;;;;5070546;28;20192;-79
2022/10/28 12:25:31;;;;;;;9.55;4.22;;;35.10;1.00;;;;;;5068092;28;20187;-78
2022/10/28 12:28:05;;;;;;;9.15;3.30;;;35.40;1.00;;;;;;5070156;28;20237;-77
2022/10/28 12:30:39;;;;;;;11.60;3.88;;;35.50;1.00;;;;;;5063577;28;20258;-79
2022/10/28 12:33:23;;;;;;;11.13;3.28;;;35.00;1.00;;;;;;5049972;28;20200;-79
2022/10/28 12:36:07;;;;;;;13.43;3.65;;;35.10;1.00;;;;;;5068420;28;20171;-79
2022/10/28 12:38:50;;;;;;;9.15;3.20;;;35.20;1.00;;;;;;5069904;28;20753;-78
2022/10/28 12:41:20;;;;;;;8.68;3.47;;;34.30;1.00;;;;;;5075435;28;20174;-80
2022/10/28 12:43:57;;;;;;;12.45;3.97;;;34.30;1.00;;;;;;5066977;28;20238;-79
2022/10/28 12:47:00;;;;;;;10.38;3.67;;;33.70;1.00;;;;;;5064132;28;20178;-81
2022/10/28 12:49:38;;;;;;;12.77;4.03;;;33.80;1.00;;;;;;5066177;28;20179;-79
2022/10/28 12:52:27;;;;;;;9.10;3.63;;;34.30;1.00;;;;;;5067970;28;20208;-78
2022/10/28 12:55:11;;;;;;;10.38;3.50;;;33.40;1.00;;;;;;5070144;28;20203;-79
2022/10/28 12:57:39;;;;;;;10.18;4.07;;;32.90;1.00;;;;;;5053436;28;20173;-80
2022/10/28 13:00:14;;;;;;;12.70;3.63;;;31.10;1.00;;;;;;5065441;28;20535;-78
2022/10/28 13:02:45;;;;;;;9.68;3.40;;;29.90;1.00;;;;;;5062955;28;20212;-78
2022/10/28 13:05:23;;;;;;;7.47;4.00;;;28.60;1.00;;;;;;5061288;28;20238;-78
2022/10/28 13:08:21;;;;;;;11.80;4.00;;;28.20;1.00;;;;;;5062646;28;20610;-77
2022/10/28 13:11:23;;;;;;;9.57;4.00;;;27.60;1.00;;;;;;5061906;28;20647;-78
2022/10/28 13:14:04;;;;;;;11.03;3.60;;;27.60;1.00;;;;;;5066478;28;20188;-78
2022/10/28 13:17:03;;;;;;;12.67;4.20;;;27.70;1.00;;;;;;5062655;28;20187;-78